sensor_id;sensor_type;location;lat;lon;timestamp;P1;durP1;ratioP1;P2;durP2;ratioP2
47337;SDS011;33069;51.970;5.892;2023-05-07T00:00:38;14.68;;;13.13;;
47337;SDS011;33069;51.970;5.892;2023-05-07T00:03:05;20.27;;;16.02;;
47337;SDS011;33069;51.970;5.892;2023-05-07T00:05:31;14.65;;;12.85;;
47337;SDS011;33069;51.970;5.892;2023-05-07T00:07:57;17.92;;;14.68;;
47337;SDS011;33069;51.970;5.892;2023-05-07T00:10:23;15.68;;;14.07;;
47337;SDS011;33069;51.970;5.892;2023-05-07T00:12:48;17.58;;;15.05;;
47337;SDS011;33069;51.970;5.892;2023-05-07T00:15:14;17.77;;;15.18;;
47337;SDS011;33069;51.970;5.892;2023-05-07T00:17:40;20.30;;;16.35;;
47337;SDS011;33069;51.970;5.892;2023-05-07T00:20:06;22.77;;;19.55;;
47337;SDS011;33069;51.970;5.892;2023-05-07T00:22:32;20.70;;;17.67;;
47337;SDS011;33069;51.970;5.892;2023-05-07T00:24:58;27.73;;;23.08;;
47337;SDS011;33069;51.970;5.892;2023-05-07T00:27:24;22.70;;;20.25;;
47337;SDS011;33069;51.970;5.892;2023-05-07T00:29:50;25.58;;;21.88;;
47337;SDS011;33069;51.970;5.892;2023-05-07T00:32:16;20.58;;;15.57;;
47337;SDS011;33069;51.970;5.892;2023-05-07T00:34:42;18.52;;;16.50;;
47337;SDS011;33069;51.970;5.892;2023-05-07T00:37:08;19.70;;;16.58;;
47337;SDS011;33069;51.970;5.892;2023-05-07T00:39:34;21.70;;;18.08;;
47337;SDS011;33069;51.970;5.892;2023-05-07T00:42:00;24.98;;;18.38;;
47337;SDS011;33069;51.970;5.892;2023-05-07T00:44:27;23.67;;;19.50;;
47337;SDS011;33069;51.970;5.892;2023-05-07T00:46:53;22.17;;;19.67;;
47337;SDS011;33069;51.970;5.892;2023-05-07T00:49:19;22.80;;;19.20;;
47337;SDS011;33069;51.970;5.892;2023-05-07T00:51:45;55.03;;;42.80;;
47337;SDS011;33069;51.970;5.892;2023-05-07T00:54:11;62.60;;;51.03;;
47337;SDS011;33069;51.970;5.892;2023-05-07T00:56:38;21.30;;;18.83;;
47337;SDS011;33069;51.970;5.892;2023-05-07T00:59:05;19.08;;;15.98;;
47337;SDS011;33069;51.970;5.892;2023-05-07T01:01:31;23.92;;;19.75;;
47337;SDS011;33069;51.970;5.892;2023-05-07T01:03:57;18.52;;;16.52;;
47337;SDS011;33069;51.970;5.892;2023-05-07T01:06:23;25.52;;;19.70;;
47337;SDS011;33069;51.970;5.892;2023-05-07T01:08:51;21.50;;;16.92;;
47337;SDS011;33069;51.970;5.892;2023-05-07T01:11:18;21.80;;;18.48;;
47337;SDS011;33069;51.970;5.892;2023-05-07T01:13:47;19.90;;;17.70;;
47337;SDS011;33069;51.970;5.892;2023-05-07T01:16:14;21.00;;;16.60;;
47337;SDS011;33069;51.970;5.892;2023-05-07T01:18:40;21.50;;;16.75;;
47337;SDS011;33069;51.970;5.892;2023-05-07T01:21:06;20.15;;;17.50;;
47337;SDS011;33069;51.970;5.892;2023-05-07T01:23:34;30.05;;;25.17;;
47337;SDS011;33069;51.970;5.892;2023-05-07T01:26:00;29.08;;;23.95;;
47337;SDS011;33069;51.970;5.892;2023-05-07T01:28:26;24.25;;;20.27;;
47337;SDS011;33069;51.970;5.892;2023-05-07T01:30:53;26.08;;;20.58;;
47337;SDS011;33069;51.970;5.892;2023-05-07T01:33:21;23.13;;;19.15;;
47337;SDS011;33069;51.970;5.892;2023-05-07T01:35:50;26.52;;;21.65;;
47337;SDS011;33069;51.970;5.892;2023-05-07T01:38:18;25.35;;;22.65;;
47337;SDS011;33069;51.970;5.892;2023-05-07T01:40:45;24.67;;;22.02;;
47337;SDS011;33069;51.970;5.892;2023-05-07T01:43:11;28.13;;;24.90;;
47337;SDS011;33069;51.970;5.892;2023-05-07T01:45:37;21.98;;;19.70;;
47337;SDS011;33069;51.970;5.892;2023-05-07T01:48:04;29.27;;;23.83;;
47337;SDS011;33069;51.970;5.892;2023-05-07T01:50:31;31.02;;;24.73;;
47337;SDS011;33069;51.970;5.892;2023-05-07T01:52:58;30.17;;;25.42;;
47337;SDS011;33069;51.970;5.892;2023-05-07T01:55:24;27.48;;;24.05;;
47337;SDS011;33069;51.970;5.892;2023-05-07T01:57:50;28.23;;;23.95;;
47337;SDS011;33069;51.970;5.892;2023-05-07T02:00:16;27.42;;;23.83;;
47337;SDS011;33069;51.970;5.892;2023-05-07T02:02:42;26.05;;;23.30;;
47337;SDS011;33069;51.970;5.892;2023-05-07T02:05:08;30.33;;;27.10;;
47337;SDS011;33069;51.970;5.892;2023-05-07T02:07:34;28.95;;;25.05;;
47337;SDS011;33069;51.970;5.892;2023-05-07T02:10:00;33.35;;;29.83;;
47337;SDS011;33069;51.970;5.892;2023-05-07T02:15:38;28.33;;;25.42;;
47337;SDS011;33069;51.970;5.892;2023-05-07T02:18:04;28.15;;;25.25;;
47337;SDS011;33069;51.970;5.892;2023-05-07T02:20:32;27.85;;;25.02;;
47337;SDS011;33069;51.970;5.892;2023-05-07T02:22:58;29.55;;;26.42;;
47337;SDS011;33069;51.970;5.892;2023-05-07T02:25:23;28.20;;;24.58;;
47337;SDS011;33069;51.970;5.892;2023-05-07T02:27:49;30.27;;;27.02;;
47337;SDS011;33069;51.970;5.892;2023-05-07T02:30:15;28.70;;;25.00;;
47337;SDS011;33069;51.970;5.892;2023-05-07T02:32:41;31.33;;;27.98;;
47337;SDS011;33069;51.970;5.892;2023-05-07T02:35:07;28.63;;;25.42;;
47337;SDS011;33069;51.970;5.892;2023-05-07T02:37:32;29.35;;;26.40;;
47337;SDS011;33069;51.970;5.892;2023-05-07T02:39:58;31.67;;;28.42;;
47337;SDS011;33069;51.970;5.892;2023-05-07T02:42:24;29.88;;;26.67;;
47337;SDS011;33069;51.970;5.892;2023-05-07T02:47:50;27.85;;;24.88;;
47337;SDS011;33069;51.970;5.892;2023-05-07T02:50:16;33.13;;;26.58;;
47337;SDS011;33069;51.970;5.892;2023-05-07T02:52:41;26.67;;;23.83;;
47337;SDS011;33069;51.970;5.892;2023-05-07T02:55:07;26.70;;;22.73;;
47337;SDS011;33069;51.970;5.892;2023-05-07T02:57:33;29.23;;;25.63;;
47337;SDS011;33069;51.970;5.892;2023-05-07T02:59:59;28.55;;;25.45;;
47337;SDS011;33069;51.970;5.892;2023-05-07T03:02:34;31.88;;;25.95;;
47337;SDS011;33069;51.970;5.892;2023-05-07T03:05:00;28.05;;;25.02;;
47337;SDS011;33069;51.970;5.892;2023-05-07T03:07:26;34.83;;;27.85;;
47337;SDS011;33069;51.970;5.892;2023-05-07T03:09:52;25.52;;;22.80;;
47337;SDS011;33069;51.970;5.892;2023-05-07T03:12:18;28.90;;;24.10;;
47337;SDS011;33069;51.970;5.892;2023-05-07T03:14:44;25.73;;;22.67;;
47337;SDS011;33069;51.970;5.892;2023-05-07T03:17:10;23.08;;;20.10;;
47337;SDS011;33069;51.970;5.892;2023-05-07T03:19:35;23.45;;;20.25;;
47337;SDS011;33069;51.970;5.892;2023-05-07T03:22:01;30.00;;;24.98;;
47337;SDS011;33069;51.970;5.892;2023-05-07T03:24:27;25.58;;;20.35;;
47337;SDS011;33069;51.970;5.892;2023-05-07T03:26:52;26.42;;;20.95;;
47337;SDS011;33069;51.970;5.892;2023-05-07T03:29:18;26.50;;;23.58;;
47337;SDS011;33069;51.970;5.892;2023-05-07T03:31:44;22.67;;;19.80;;
47337;SDS011;33069;51.970;5.892;2023-05-07T03:34:10;27.58;;;20.08;;
47337;SDS011;33069;51.970;5.892;2023-05-07T03:36:36;23.75;;;20.00;;
47337;SDS011;33069;51.970;5.892;2023-05-07T03:39:01;25.20;;;22.42;;
47337;SDS011;33069;51.970;5.892;2023-05-07T03:41:27;27.50;;;23.20;;
47337;SDS011;33069;51.970;5.892;2023-05-07T03:43:54;23.48;;;20.95;;
47337;SDS011;33069;51.970;5.892;2023-05-07T03:46:20;27.02;;;24.08;;
47337;SDS011;33069;51.970;5.892;2023-05-07T03:48:46;26.02;;;23.13;;
47337;SDS011;33069;51.970;5.892;2023-05-07T03:51:11;28.40;;;24.20;;
47337;SDS011;33069;51.970;5.892;2023-05-07T03:53:37;27.15;;;24.20;;
47337;SDS011;33069;51.970;5.892;2023-05-07T03:56:03;26.67;;;21.02;;
47337;SDS011;33069;51.970;5.892;2023-05-07T03:58:28;25.60;;;21.00;;
47337;SDS011;33069;51.970;5.892;2023-05-07T04:00:54;26.23;;;23.33;;
47337;SDS011;33069;51.970;5.892;2023-05-07T04:03:20;25.60;;;22.88;;
47337;SDS011;33069;51.970;5.892;2023-05-07T04:05:46;26.10;;;22.83;;
47337;SDS011;33069;51.970;5.892;2023-05-07T04:08:12;29.33;;;22.58;;
47337;SDS011;33069;51.970;5.892;2023-05-07T04:10:37;25.88;;;22.45;;
47337;SDS011;33069;51.970;5.892;2023-05-07T04:13:03;25.92;;;21.58;;
47337;SDS011;33069;51.970;5.892;2023-05-07T04:15:29;33.10;;;27.75;;
47337;SDS011;33069;51.970;5.892;2023-05-07T04:17:54;27.17;;;22.83;;
47337;SDS011;33069;51.970;5.892;2023-05-07T04:20:20;25.38;;;22.65;;
47337;SDS011;33069;51.970;5.892;2023-05-07T04:22:46;27.88;;;24.65;;
47337;SDS011;33069;51.970;5.892;2023-05-07T04:25:11;31.17;;;26.40;;
47337;SDS011;33069;51.970;5.892;2023-05-07T04:27:37;30.70;;;27.38;;
47337;SDS011;33069;51.970;5.892;2023-05-07T04:30:03;28.80;;;25.73;;
47337;SDS011;33069;51.970;5.892;2023-05-07T04:32:29;29.58;;;25.65;;
47337;SDS011;33069;51.970;5.892;2023-05-07T04:34:57;26.45;;;23.70;;
47337;SDS011;33069;51.970;5.892;2023-05-07T04:37:25;30.30;;;27.10;;
47337;SDS011;33069;51.970;5.892;2023-05-07T04:39:51;29.38;;;25.90;;
47337;SDS011;33069;51.970;5.892;2023-05-07T04:42:17;31.38;;;28.15;;
47337;SDS011;33069;51.970;5.892;2023-05-07T04:44:44;29.75;;;26.58;;
47337;SDS011;33069;51.970;5.892;2023-05-07T04:47:10;34.45;;;30.80;;
47337;SDS011;33069;51.970;5.892;2023-05-07T04:49:37;35.90;;;32.05;;
47337;SDS011;33069;51.970;5.892;2023-05-07T04:52:04;35.40;;;31.63;;
47337;SDS011;33069;51.970;5.892;2023-05-07T04:54:29;31.10;;;27.50;;
47337;SDS011;33069;51.970;5.892;2023-05-07T04:56:55;32.40;;;28.92;;
47337;SDS011;33069;51.970;5.892;2023-05-07T04:59:21;29.58;;;26.58;;
47337;SDS011;33069;51.970;5.892;2023-05-07T05:01:47;33.75;;;30.15;;
47337;SDS011;33069;51.970;5.892;2023-05-07T05:04:12;32.10;;;28.70;;
47337;SDS011;33069;51.970;5.892;2023-05-07T05:06:38;35.28;;;31.63;;
47337;SDS011;33069;51.970;5.892;2023-05-07T05:09:04;34.65;;;31.02;;
47337;SDS011;33069;51.970;5.892;2023-05-07T05:11:30;37.30;;;32.63;;
47337;SDS011;33069;51.970;5.892;2023-05-07T05:13:56;33.50;;;29.85;;
47337;SDS011;33069;51.970;5.892;2023-05-07T05:16:23;40.53;;;34.22;;
47337;SDS011;33069;51.970;5.892;2023-05-07T05:18:49;34.42;;;28.40;;
47337;SDS011;33069;51.970;5.892;2023-05-07T05:21:17;32.13;;;28.25;;
47337;SDS011;33069;51.970;5.892;2023-05-07T05:23:42;36.55;;;32.67;;
47337;SDS011;33069;51.970;5.892;2023-05-07T05:26:08;31.65;;;28.15;;
47337;SDS011;33069;51.970;5.892;2023-05-07T05:28:34;31.13;;;27.90;;
47337;SDS011;33069;51.970;5.892;2023-05-07T05:31:00;30.42;;;27.17;;
47337;SDS011;33069;51.970;5.892;2023-05-07T05:33:25;27.55;;;24.67;;
47337;SDS011;33069;51.970;5.892;2023-05-07T05:35:51;30.40;;;27.25;;
47337;SDS011;33069;51.970;5.892;2023-05-07T05:38:18;37.70;;;32.38;;
47337;SDS011;33069;51.970;5.892;2023-05-07T05:40:44;27.33;;;24.42;;
47337;SDS011;33069;51.970;5.892;2023-05-07T05:43:09;34.05;;;30.63;;
47337;SDS011;33069;51.970;5.892;2023-05-07T05:45:35;29.48;;;26.38;;
47337;SDS011;33069;51.970;5.892;2023-05-07T05:48:01;34.65;;;29.30;;
47337;SDS011;33069;51.970;5.892;2023-05-07T05:50:27;30.98;;;26.30;;
47337;SDS011;33069;51.970;5.892;2023-05-07T05:52:52;31.60;;;28.38;;
47337;SDS011;33069;51.970;5.892;2023-05-07T05:55:18;26.23;;;23.65;;
47337;SDS011;33069;51.970;5.892;2023-05-07T05:57:44;28.67;;;25.45;;
47337;SDS011;33069;51.970;5.892;2023-05-07T06:00:10;30.52;;;27.23;;
47337;SDS011;33069;51.970;5.892;2023-05-07T06:02:36;30.42;;;27.42;;
47337;SDS011;33069;51.970;5.892;2023-05-07T06:05:02;34.80;;;29.70;;
47337;SDS011;33069;51.970;5.892;2023-05-07T06:07:29;38.83;;;34.95;;
47337;SDS011;33069;51.970;5.892;2023-05-07T06:09:54;37.53;;;33.28;;
47337;SDS011;33069;51.970;5.892;2023-05-07T06:12:20;32.83;;;28.33;;
47337;SDS011;33069;51.970;5.892;2023-05-07T06:14:46;33.72;;;29.98;;
47337;SDS011;33069;51.970;5.892;2023-05-07T06:17:12;36.40;;;31.63;;
47337;SDS011;33069;51.970;5.892;2023-05-07T06:19:38;33.10;;;29.25;;
47337;SDS011;33069;51.970;5.892;2023-05-07T06:22:03;29.80;;;26.55;;
47337;SDS011;33069;51.970;5.892;2023-05-07T06:24:29;30.02;;;27.10;;
47337;SDS011;33069;51.970;5.892;2023-05-07T06:26:55;32.08;;;28.77;;
47337;SDS011;33069;51.970;5.892;2023-05-07T06:29:21;28.38;;;25.52;;
47337;SDS011;33069;51.970;5.892;2023-05-07T06:31:46;27.15;;;24.27;;
47337;SDS011;33069;51.970;5.892;2023-05-07T06:34:12;29.75;;;26.83;;
47337;SDS011;33069;51.970;5.892;2023-05-07T06:36:39;25.70;;;22.98;;
47337;SDS011;33069;51.970;5.892;2023-05-07T06:39:06;33.95;;;30.50;;
47337;SDS011;33069;51.970;5.892;2023-05-07T06:41:37;30.65;;;26.42;;
47337;SDS011;33069;51.970;5.892;2023-05-07T06:44:04;27.52;;;24.73;;
47337;SDS011;33069;51.970;5.892;2023-05-07T06:46:30;26.40;;;23.15;;
47337;SDS011;33069;51.970;5.892;2023-05-07T06:48:55;25.77;;;23.20;;
47337;SDS011;33069;51.970;5.892;2023-05-07T06:51:21;27.35;;;24.00;;
47337;SDS011;33069;51.970;5.892;2023-05-07T06:53:47;25.38;;;22.63;;
47337;SDS011;33069;51.970;5.892;2023-05-07T06:56:13;31.23;;;28.02;;
47337;SDS011;33069;51.970;5.892;2023-05-07T06:58:39;30.80;;;27.20;;
47337;SDS011;33069;51.970;5.892;2023-05-07T07:01:05;27.90;;;25.08;;
47337;SDS011;33069;51.970;5.892;2023-05-07T07:03:31;31.90;;;28.50;;
47337;SDS011;33069;51.970;5.892;2023-05-07T07:05:56;27.27;;;23.42;;
47337;SDS011;33069;51.970;5.892;2023-05-07T07:08:22;31.63;;;28.52;;
47337;SDS011;33069;51.970;5.892;2023-05-07T07:10:48;28.77;;;25.75;;
47337;SDS011;33069;51.970;5.892;2023-05-07T07:13:14;29.83;;;26.52;;
47337;SDS011;33069;51.970;5.892;2023-05-07T07:15:39;32.28;;;27.48;;
47337;SDS011;33069;51.970;5.892;2023-05-07T07:18:05;30.30;;;27.02;;
47337;SDS011;33069;51.970;5.892;2023-05-07T07:20:31;28.88;;;25.80;;
47337;SDS011;33069;51.970;5.892;2023-05-07T07:22:57;31.65;;;28.23;;
47337;SDS011;33069;51.970;5.892;2023-05-07T07:25:23;34.30;;;30.33;;
47337;SDS011;33069;51.970;5.892;2023-05-07T07:27:49;30.00;;;26.90;;
47337;SDS011;33069;51.970;5.892;2023-05-07T07:30:15;30.63;;;27.15;;
47337;SDS011;33069;51.970;5.892;2023-05-07T07:32:40;28.88;;;24.65;;
47337;SDS011;33069;51.970;5.892;2023-05-07T07:35:06;29.02;;;25.88;;
47337;SDS011;33069;51.970;5.892;2023-05-07T07:37:32;29.48;;;26.10;;
47337;SDS011;33069;51.970;5.892;2023-05-07T07:39:58;29.17;;;26.13;;
47337;SDS011;33069;51.970;5.892;2023-05-07T07:42:24;30.35;;;23.80;;
47337;SDS011;33069;51.970;5.892;2023-05-07T07:44:50;28.55;;;23.90;;
47337;SDS011;33069;51.970;5.892;2023-05-07T07:47:16;28.52;;;24.73;;
47337;SDS011;33069;51.970;5.892;2023-05-07T07:49:41;27.02;;;24.33;;
47337;SDS011;33069;51.970;5.892;2023-05-07T07:52:07;28.30;;;25.13;;
47337;SDS011;33069;51.970;5.892;2023-05-07T07:54:33;26.73;;;23.83;;
47337;SDS011;33069;51.970;5.892;2023-05-07T07:56:59;34.05;;;27.67;;
47337;SDS011;33069;51.970;5.892;2023-05-07T07:59:24;34.58;;;28.27;;
47337;SDS011;33069;51.970;5.892;2023-05-07T08:01:50;29.17;;;26.08;;
47337;SDS011;33069;51.970;5.892;2023-05-07T08:04:17;29.27;;;26.10;;
47337;SDS011;33069;51.970;5.892;2023-05-07T08:06:43;30.63;;;27.38;;
47337;SDS011;33069;51.970;5.892;2023-05-07T08:09:09;32.22;;;28.77;;
47337;SDS011;33069;51.970;5.892;2023-05-07T08:11:34;26.77;;;24.10;;
47337;SDS011;33069;51.970;5.892;2023-05-07T08:14:00;28.73;;;25.67;;
47337;SDS011;33069;51.970;5.892;2023-05-07T08:16:26;29.70;;;26.58;;
47337;SDS011;33069;51.970;5.892;2023-05-07T08:18:53;32.45;;;26.08;;
47337;SDS011;33069;51.970;5.892;2023-05-07T08:21:18;27.98;;;25.00;;
47337;SDS011;33069;51.970;5.892;2023-05-07T08:23:45;30.13;;;26.08;;
47337;SDS011;33069;51.970;5.892;2023-05-07T08:26:11;28.80;;;25.80;;
47337;SDS011;33069;51.970;5.892;2023-05-07T08:28:36;28.45;;;24.98;;
47337;SDS011;33069;51.970;5.892;2023-05-07T08:31:02;25.77;;;23.05;;
47337;SDS011;33069;51.970;5.892;2023-05-07T08:33:28;25.67;;;22.98;;
47337;SDS011;33069;51.970;5.892;2023-05-07T08:35:53;33.58;;;29.92;;
47337;SDS011;33069;51.970;5.892;2023-05-07T08:38:19;32.55;;;28.98;;
47337;SDS011;33069;51.970;5.892;2023-05-07T08:40:45;33.30;;;29.25;;
47337;SDS011;33069;51.970;5.892;2023-05-07T08:43:15;31.08;;;26.90;;
47337;SDS011;33069;51.970;5.892;2023-05-07T08:45:41;29.55;;;25.02;;
47337;SDS011;33069;51.970;5.892;2023-05-07T08:48:16;30.45;;;25.83;;
47337;SDS011;33069;51.970;5.892;2023-05-07T08:50:42;27.35;;;24.48;;
47337;SDS011;33069;51.970;5.892;2023-05-07T08:53:08;29.50;;;26.35;;
47337;SDS011;33069;51.970;5.892;2023-05-07T08:55:34;25.85;;;23.02;;
47337;SDS011;33069;51.970;5.892;2023-05-07T08:58:00;28.40;;;23.08;;
47337;SDS011;33069;51.970;5.892;2023-05-07T09:00:26;29.75;;;25.77;;
47337;SDS011;33069;51.970;5.892;2023-05-07T09:02:52;29.27;;;25.42;;
47337;SDS011;33069;51.970;5.892;2023-05-07T09:05:18;25.50;;;22.83;;
47337;SDS011;33069;51.970;5.892;2023-05-07T09:07:47;30.35;;;27.25;;
47337;SDS011;33069;51.970;5.892;2023-05-07T09:10:14;25.00;;;22.33;;
47337;SDS011;33069;51.970;5.892;2023-05-07T09:12:39;30.85;;;23.33;;
47337;SDS011;33069;51.970;5.892;2023-05-07T09:15:06;25.38;;;22.55;;
47337;SDS011;33069;51.970;5.892;2023-05-07T09:17:32;26.27;;;23.48;;
47337;SDS011;33069;51.970;5.892;2023-05-07T09:20:04;25.00;;;21.85;;
47337;SDS011;33069;51.970;5.892;2023-05-07T09:22:31;21.05;;;18.55;;
47337;SDS011;33069;51.970;5.892;2023-05-07T09:24:58;24.95;;;22.45;;
47337;SDS011;33069;51.970;5.892;2023-05-07T09:27:24;27.83;;;24.30;;
47337;SDS011;33069;51.970;5.892;2023-05-07T09:29:51;26.08;;;23.35;;
47337;SDS011;33069;51.970;5.892;2023-05-07T09:32:17;30.75;;;26.40;;
47337;SDS011;33069;51.970;5.892;2023-05-07T09:34:42;26.95;;;23.42;;
47337;SDS011;33069;51.970;5.892;2023-05-07T09:37:08;26.17;;;23.38;;
47337;SDS011;33069;51.970;5.892;2023-05-07T09:39:44;25.65;;;22.58;;
47337;SDS011;33069;51.970;5.892;2023-05-07T09:42:11;25.67;;;22.90;;
47337;SDS011;33069;51.970;5.892;2023-05-07T09:44:38;23.55;;;19.83;;
47337;SDS011;33069;51.970;5.892;2023-05-07T09:47:04;23.83;;;21.30;;
47337;SDS011;33069;51.970;5.892;2023-05-07T09:49:33;27.05;;;24.15;;
47337;SDS011;33069;51.970;5.892;2023-05-07T09:52:01;24.33;;;20.75;;
47337;SDS011;33069;51.970;5.892;2023-05-07T09:54:28;28.23;;;22.27;;
47337;SDS011;33069;51.970;5.892;2023-05-07T09:56:55;22.77;;;20.08;;
47337;SDS011;33069;51.970;5.892;2023-05-07T09:59:23;27.67;;;24.13;;
47337;SDS011;33069;51.970;5.892;2023-05-07T10:01:50;25.77;;;23.10;;
47337;SDS011;33069;51.970;5.892;2023-05-07T10:04:18;27.65;;;21.63;;
47337;SDS011;33069;51.970;5.892;2023-05-07T10:06:45;24.95;;;22.50;;
47337;SDS011;33069;51.970;5.892;2023-05-07T10:09:12;25.17;;;22.50;;
47337;SDS011;33069;51.970;5.892;2023-05-07T10:11:38;22.20;;;19.92;;
47337;SDS011;33069;51.970;5.892;2023-05-07T10:14:05;25.10;;;22.65;;
47337;SDS011;33069;51.970;5.892;2023-05-07T10:16:31;24.98;;;22.58;;
47337;SDS011;33069;51.970;5.892;2023-05-07T10:19:04;25.23;;;22.33;;
47337;SDS011;33069;51.970;5.892;2023-05-07T10:21:31;24.35;;;21.95;;
47337;SDS011;33069;51.970;5.892;2023-05-07T10:26:27;25.38;;;22.85;;
47337;SDS011;33069;51.970;5.892;2023-05-07T10:28:57;23.20;;;20.92;;
47337;SDS011;33069;51.970;5.892;2023-05-07T10:34:21;25.30;;;22.65;;
47337;SDS011;33069;51.970;5.892;2023-05-07T10:36:51;25.15;;;22.58;;
47337;SDS011;33069;51.970;5.892;2023-05-07T10:39:17;24.55;;;22.02;;
47337;SDS011;33069;51.970;5.892;2023-05-07T10:41:46;22.00;;;19.83;;
47337;SDS011;33069;51.970;5.892;2023-05-07T10:44:24;23.50;;;21.25;;
47337;SDS011;33069;51.970;5.892;2023-05-07T10:47:07;24.65;;;22.33;;
47337;SDS011;33069;51.970;5.892;2023-05-07T10:49:35;24.75;;;21.02;;
47337;SDS011;33069;51.970;5.892;2023-05-07T10:52:14;23.80;;;21.33;;
47337;SDS011;33069;51.970;5.892;2023-05-07T10:57:44;21.67;;;19.63;;
47337;SDS011;33069;51.970;5.892;2023-05-07T11:05:26;23.88;;;21.52;;
47337;SDS011;33069;51.970;5.892;2023-05-07T11:08:00;25.30;;;22.80;;
47337;SDS011;33069;51.970;5.892;2023-05-07T11:16:19;21.17;;;19.25;;
47337;SDS011;33069;51.970;5.892;2023-05-07T11:18:50;21.63;;;19.63;;
47337;SDS011;33069;51.970;5.892;2023-05-07T11:24:13;22.17;;;20.25;;
47337;SDS011;33069;51.970;5.892;2023-05-07T11:26:47;23.65;;;21.50;;
47337;SDS011;33069;51.970;5.892;2023-05-07T11:29:18;21.42;;;19.52;;
47337;SDS011;33069;51.970;5.892;2023-05-07T11:31:48;21.67;;;19.88;;
47337;SDS011;33069;51.970;5.892;2023-05-07T11:34:24;23.42;;;21.33;;
47337;SDS011;33069;51.970;5.892;2023-05-07T11:36:51;26.13;;;23.63;;
47337;SDS011;33069;51.970;5.892;2023-05-07T11:39:24;25.17;;;22.95;;
47337;SDS011;33069;51.970;5.892;2023-05-07T11:41:53;24.15;;;21.65;;
47337;SDS011;33069;51.970;5.892;2023-05-07T11:44:19;25.27;;;22.77;;
47337;SDS011;33069;51.970;5.892;2023-05-07T11:46:45;22.40;;;20.30;;
47337;SDS011;33069;51.970;5.892;2023-05-07T11:49:11;23.95;;;21.73;;
47337;SDS011;33069;51.970;5.892;2023-05-07T11:51:37;22.27;;;19.83;;
47337;SDS011;33069;51.970;5.892;2023-05-07T11:54:04;25.83;;;23.42;;
47337;SDS011;33069;51.970;5.892;2023-05-07T11:56:34;23.98;;;21.73;;
47337;SDS011;33069;51.970;5.892;2023-05-07T11:59:04;24.63;;;22.33;;
47337;SDS011;33069;51.970;5.892;2023-05-07T12:01:29;27.30;;;24.40;;
47337;SDS011;33069;51.970;5.892;2023-05-07T12:03:55;22.55;;;20.55;;
47337;SDS011;33069;51.970;5.892;2023-05-07T12:06:21;23.92;;;21.50;;
47337;SDS011;33069;51.970;5.892;2023-05-07T12:08:47;22.83;;;20.75;;
47337;SDS011;33069;51.970;5.892;2023-05-07T12:11:14;28.02;;;25.27;;
47337;SDS011;33069;51.970;5.892;2023-05-07T12:13:50;23.08;;;20.95;;
47337;SDS011;33069;51.970;5.892;2023-05-07T12:16:16;19.90;;;17.90;;
47337;SDS011;33069;51.970;5.892;2023-05-07T12:18:42;22.67;;;20.58;;
47337;SDS011;33069;51.970;5.892;2023-05-07T12:21:09;23.30;;;20.40;;
47337;SDS011;33069;51.970;5.892;2023-05-07T12:23:36;23.77;;;21.40;;
47337;SDS011;33069;51.970;5.892;2023-05-07T12:26:02;23.23;;;21.00;;
47337;SDS011;33069;51.970;5.892;2023-05-07T12:28:28;21.38;;;19.38;;
47337;SDS011;33069;51.970;5.892;2023-05-07T12:30:55;20.83;;;19.08;;
47337;SDS011;33069;51.970;5.892;2023-05-07T12:33:26;21.60;;;19.63;;
47337;SDS011;33069;51.970;5.892;2023-05-07T12:35:54;21.83;;;19.73;;
47337;SDS011;33069;51.970;5.892;2023-05-07T12:38:20;23.10;;;21.00;;
47337;SDS011;33069;51.970;5.892;2023-05-07T12:40:47;20.50;;;18.50;;
47337;SDS011;33069;51.970;5.892;2023-05-07T12:43:26;21.15;;;19.13;;
47337;SDS011;33069;51.970;5.892;2023-05-07T12:45:56;22.58;;;20.55;;
47337;SDS011;33069;51.970;5.892;2023-05-07T12:48:24;19.52;;;17.73;;
47337;SDS011;33069;51.970;5.892;2023-05-07T12:50:55;19.83;;;17.77;;
47337;SDS011;33069;51.970;5.892;2023-05-07T12:53:23;20.95;;;19.08;;
47337;SDS011;33069;51.970;5.892;2023-05-07T12:55:51;24.45;;;19.45;;
47337;SDS011;33069;51.970;5.892;2023-05-07T12:58:28;21.27;;;19.30;;
47337;SDS011;33069;51.970;5.892;2023-05-07T13:00:56;22.55;;;20.33;;
47337;SDS011;33069;51.970;5.892;2023-05-07T13:03:29;20.85;;;18.95;;
47337;SDS011;33069;51.970;5.892;2023-05-07T13:06:06;21.98;;;19.77;;
47337;SDS011;33069;51.970;5.892;2023-05-07T13:08:38;19.45;;;17.55;;
47337;SDS011;33069;51.970;5.892;2023-05-07T13:11:06;18.27;;;16.63;;
47337;SDS011;33069;51.970;5.892;2023-05-07T13:13:33;20.58;;;18.60;;
47337;SDS011;33069;51.970;5.892;2023-05-07T13:16:00;20.95;;;19.05;;
47337;SDS011;33069;51.970;5.892;2023-05-07T13:18:27;22.98;;;20.60;;
47337;SDS011;33069;51.970;5.892;2023-05-07T13:20:54;18.55;;;16.95;;
47337;SDS011;33069;51.970;5.892;2023-05-07T13:23:20;20.35;;;18.42;;
47337;SDS011;33069;51.970;5.892;2023-05-07T13:25:46;20.30;;;18.40;;
47337;SDS011;33069;51.970;5.892;2023-05-07T13:28:12;19.08;;;17.23;;
47337;SDS011;33069;51.970;5.892;2023-05-07T13:30:38;19.00;;;17.20;;
47337;SDS011;33069;51.970;5.892;2023-05-07T13:33:03;19.60;;;17.60;;
47337;SDS011;33069;51.970;5.892;2023-05-07T13:35:29;19.50;;;17.50;;
47337;SDS011;33069;51.970;5.892;2023-05-07T13:37:55;21.70;;;19.60;;
47337;SDS011;33069;51.970;5.892;2023-05-07T13:40:21;18.80;;;17.00;;
47337;SDS011;33069;51.970;5.892;2023-05-07T13:42:47;19.92;;;17.92;;
47337;SDS011;33069;51.970;5.892;2023-05-07T13:45:14;20.17;;;18.10;;
47337;SDS011;33069;51.970;5.892;2023-05-07T13:47:40;19.13;;;17.13;;
47337;SDS011;33069;51.970;5.892;2023-05-07T13:50:07;20.25;;;18.25;;
47337;SDS011;33069;51.970;5.892;2023-05-07T13:52:34;20.50;;;18.23;;
47337;SDS011;33069;51.970;5.892;2023-05-07T13:55:00;20.73;;;18.58;;
47337;SDS011;33069;51.970;5.892;2023-05-07T13:57:25;18.23;;;16.50;;
47337;SDS011;33069;51.970;5.892;2023-05-07T13:59:51;17.58;;;15.80;;
47337;SDS011;33069;51.970;5.892;2023-05-07T14:02:16;17.40;;;15.95;;
47337;SDS011;33069;51.970;5.892;2023-05-07T14:04:42;18.08;;;16.42;;
47337;SDS011;33069;51.970;5.892;2023-05-07T14:07:08;18.08;;;16.48;;
47337;SDS011;33069;51.970;5.892;2023-05-07T14:09:33;15.40;;;13.90;;
47337;SDS011;33069;51.970;5.892;2023-05-07T14:11:59;17.63;;;16.13;;
47337;SDS011;33069;51.970;5.892;2023-05-07T14:14:26;18.52;;;16.75;;
47337;SDS011;33069;51.970;5.892;2023-05-07T14:16:52;18.00;;;16.23;;
47337;SDS011;33069;51.970;5.892;2023-05-07T14:19:18;18.17;;;16.48;;
47337;SDS011;33069;51.970;5.892;2023-05-07T14:21:43;18.80;;;17.10;;
47337;SDS011;33069;51.970;5.892;2023-05-07T14:24:09;17.45;;;15.75;;
47337;SDS011;33069;51.970;5.892;2023-05-07T14:26:35;19.15;;;17.23;;
47337;SDS011;33069;51.970;5.892;2023-05-07T14:29:01;17.17;;;15.57;;
47337;SDS011;33069;51.970;5.892;2023-05-07T14:31:27;17.45;;;15.65;;
47337;SDS011;33069;51.970;5.892;2023-05-07T14:33:53;21.13;;;19.20;;
47337;SDS011;33069;51.970;5.892;2023-05-07T14:36:19;20.88;;;18.88;;
47337;SDS011;33069;51.970;5.892;2023-05-07T14:38:46;17.65;;;15.93;;
47337;SDS011;33069;51.970;5.892;2023-05-07T14:41:12;20.20;;;18.02;;
47337;SDS011;33069;51.970;5.892;2023-05-07T14:43:38;20.23;;;17.77;;
47337;SDS011;33069;51.970;5.892;2023-05-07T14:46:03;20.50;;;18.63;;